KPBI/PBI METAR and TAF weather

Enter ICAO airport designator
Station Type Date Time Source
KPBI METAR 2021/04/14 18:53 UTC NOAA

KPBI 141853Z 10014KT 10SM FEW250 27/16 A3009 RMK AO2 SLP187 T02720161 $


Station Type Date Time Source
KPBI Decoded METAR 2021/04/14 18:53 UTC NOAA

PALM BEACH INTERNATIONAL, FL, United States (KPBI) 26-41N 80-06W 6M
Apr 14, 2021 - 02:53 PM EDT / 2021.04.14 1853 UTC
Wind: from the E (100 degrees) at 16 MPH (14 KT):0
Visibility: 10 mile(s):0
Sky conditions: mostly clear
Temperature: 81.0 F (27.2 C)
Dew Point: 61.0 F (16.1 C)
Relative Humidity: 50%
Pressure (altimeter): 30.09 in. Hg (1018 hPa)
ob: KPBI 141853Z 10014KT 10SM FEW250 27/16 A3009 RMK AO2 SLP187 T02720161
cycle: 19

Station Type Date Time Source
KPBI TAF 2021/04/14 18:31 UTC NOAA

TAF KPBI 141725Z 1418/1518 10015KT P6SM SKC
FM150500 VRB03KT P6SM SKC
FM151400 15015KT P6SM SCT030

Example: see airport list